Time;durP1;ratioP1;P1;durP2;ratioP2;P2;SDS_P1;SDS_P2;PMS_P1;PMS_P2;Temp;Humidity;BMP_temperature;BMP_pressure;BME280_temperature;BME280_humidity;BME280_pressure;Samples;Min_cycle;Max_cycle;Signal;HPM_P1;HPM_P2
2022/08/21 00:00:56;;;;;;;10.18;9.88;;;18.10;99.90;;;;;;5020122;28;20315;-77
2022/08/21 00:03:23;;;;;;;9.90;9.60;;;18.10;99.90;;;;;;5020001;28;20238;-78
2022/08/21 00:05:52;;;;;;;10.00;9.70;;;18.10;99.90;;;;;;5018743;28;20237;-77
2022/08/21 00:08:20;;;;;;;10.00;9.70;;;18.10;99.90;;;;;;5019418;28;20228;-77
2022/08/21 00:10:48;;;;;;;9.90;9.60;;;18.00;99.90;;;;;;5019913;28;20260;-77
2022/08/21 00:13:17;;;;;;;10.10;9.80;;;18.00;99.90;;;;;;5019833;28;20235;-77
2022/08/21 00:15:47;;;;;;;10.00;9.70;;;18.00;99.90;;;;;;5018932;28;20228;-78
2022/08/21 00:18:15;;;;;;;9.98;9.68;;;18.00;99.90;;;;;;5019605;28;20240;-77
2022/08/21 00:20:43;;;;;;;10.10;9.80;;;18.00;99.90;;;;;;5019382;28;20243;-77
2022/08/21 00:23:11;;;;;;;10.10;9.80;;;17.90;99.90;;;;;;5019276;28;20235;-77
2022/08/21 00:25:40;;;;;;;10.02;9.73;;;17.90;99.90;;;;;;5018539;28;20319;-77
2022/08/21 00:28:08;;;;;;;10.07;9.77;;;17.90;99.90;;;;;;5018841;28;20230;-77
2022/08/21 00:30:36;;;;;;;10.10;9.80;;;17.80;99.90;;;;;;5019030;28;20250;-77
2022/08/21 00:33:05;;;;;;;9.80;9.50;;;17.80;99.90;;;;;;5019554;28;20240;-78
2022/08/21 00:35:37;;;;;;;10.00;9.70;;;17.80;99.90;;;;;;5018698;28;20267;-77
2022/08/21 00:38:07;;;;;;;10.00;9.70;;;17.80;99.90;;;;;;5019283;28;20255;-78
2022/08/21 00:40:40;;;;;;;10.00;9.70;;;17.80;99.90;;;;;;5019189;28;20344;-77
2022/08/21 00:43:11;;;;;;;10.40;10.10;;;17.70;99.90;;;;;;5020099;28;20240;-78
2022/08/21 00:45:39;;;;;;;10.20;9.90;;;17.60;99.90;;;;;;5018776;28;20334;-78
2022/08/21 00:48:08;;;;;;;10.30;10.00;;;17.60;99.90;;;;;;5020222;28;20239;-77
2022/08/21 00:50:40;;;;;;;10.20;9.90;;;17.50;99.90;;;;;;5019309;28;20240;-78
2022/08/21 00:53:09;;;;;;;10.30;10.00;;;17.50;99.90;;;;;;5019694;28;20232;-77
2022/08/21 00:55:38;;;;;;;10.30;10.00;;;17.50;99.90;;;;;;5018479;28;20322;-77
2022/08/21 00:58:08;;;;;;;10.00;9.70;;;17.50;99.90;;;;;;5020519;28;20243;-78
2022/08/21 01:00:40;;;;;;;10.23;9.93;;;17.50;99.90;;;;;;5021452;28;20304;-77
2022/08/21 01:03:13;;;;;;;10.18;9.88;;;17.40;99.90;;;;;;5022045;28;20238;-77
2022/08/21 01:05:42;;;;;;;10.23;9.93;;;17.40;99.90;;;;;;5022523;28;20335;-77
2022/08/21 01:08:11;;;;;;;10.10;9.80;;;17.20;99.90;;;;;;5021842;28;20231;-77
2022/08/21 01:10:39;;;;;;;10.15;9.85;;;17.20;99.90;;;;;;5020269;28;20246;-76
2022/08/21 01:13:09;;;;;;;10.18;9.88;;;17.20;99.90;;;;;;5024087;28;20313;-77
2022/08/21 01:15:40;;;;;;;10.35;10.05;;;17.20;99.90;;;;;;5023039;28;20282;-76
2022/08/21 01:18:12;;;;;;;10.32;10.02;;;17.20;99.90;;;;;;5021476;28;20236;-77
2022/08/21 01:20:50;;;;;;;10.20;9.90;;;17.20;99.90;;;;;;5023040;28;20240;-77
2022/08/21 01:23:19;;;;;;;10.30;10.00;;;17.20;99.90;;;;;;5021304;28;20236;-77
2022/08/21 01:25:47;;;;;;;10.35;10.05;;;17.20;99.90;;;;;;5019657;28;20232;-77
2022/08/21 01:28:15;;;;;;;10.40;10.10;;;17.20;99.90;;;;;;5019685;28;20224;-77
2022/08/21 01:30:45;;;;;;;10.15;9.85;;;17.30;99.90;;;;;;5019324;28;20247;-77
2022/08/21 01:33:12;;;;;;;10.27;9.98;;;17.30;99.90;;;;;;5022367;28;20263;-77
2022/08/21 01:35:40;;;;;;;10.13;9.82;;;17.30;99.90;;;;;;5021265;28;20238;-77
2022/08/21 01:38:08;;;;;;;10.30;10.00;;;17.30;99.90;;;;;;5022079;28;20335;-77
2022/08/21 01:40:37;;;;;;;10.43;10.13;;;17.40;99.90;;;;;;5021462;28;20244;-77
2022/08/21 01:43:04;;;;;;;10.48;10.18;;;17.30;99.90;;;;;;5022725;28;20228;-77
2022/08/21 01:45:34;;;;;;;10.30;10.00;;;17.30;99.90;;;;;;5021146;28;20224;-77
2022/08/21 01:48:02;;;;;;;10.35;10.05;;;17.30;99.90;;;;;;5020477;28;20232;-77
2022/08/21 01:50:30;;;;;;;10.20;9.90;;;17.20;99.90;;;;;;5020674;28;20263;-77
2022/08/21 01:52:57;;;;;;;10.35;10.05;;;17.20;99.90;;;;;;5022365;28;20236;-77
2022/08/21 01:55:25;;;;;;;10.48;10.18;;;17.20;99.90;;;;;;5021650;28;20288;-77
2022/08/21 01:57:54;;;;;;;10.38;10.07;;;17.20;99.90;;;;;;5020757;28;20242;-77
2022/08/21 02:00:23;;;;;;;10.35;10.05;;;17.20;99.90;;;;;;5021431;28;20246;-77
2022/08/21 02:02:51;;;;;;;10.20;9.90;;;17.20;99.90;;;;;;5024474;28;20240;-77
2022/08/21 02:05:20;;;;;;;10.20;9.90;;;17.10;99.90;;;;;;5025292;28;20230;-77
2022/08/21 02:07:53;;;;;;;10.18;9.88;;;17.10;99.90;;;;;;5023083;28;20287;-77
2022/08/21 02:10:26;;;;;;;10.63;10.32;;;16.90;99.90;;;;;;5021083;28;20240;-77
2022/08/21 02:12:56;;;;;;;10.40;10.10;;;16.80;99.90;;;;;;5021598;28;20235;-77
2022/08/21 02:15:23;;;;;;;10.55;10.25;;;16.80;99.90;;;;;;5020462;28;20264;-77
2022/08/21 02:17:54;;;;;;;10.52;10.23;;;16.80;99.90;;;;;;5020138;28;20246;-77
2022/08/21 02:20:26;;;;;;;10.60;10.30;;;16.90;99.90;;;;;;5018085;28;20239;-77
2022/08/21 02:22:54;;;;;;;10.40;10.10;;;16.90;99.90;;;;;;5017762;28;20319;-77
2022/08/21 02:25:24;;;;;;;10.48;10.18;;;16.90;99.90;;;;;;5017199;28;20319;-77
2022/08/21 02:27:54;;;;;;;10.45;10.15;;;16.90;99.90;;;;;;5017855;28;20238;-77
2022/08/21 02:30:26;;;;;;;10.43;10.13;;;16.90;99.90;;;;;;5017939;28;20236;-77
2022/08/21 02:32:54;;;;;;;10.40;10.10;;;16.90;99.90;;;;;;5018140;28;20303;-77
2022/08/21 02:35:22;;;;;;;10.65;10.35;;;16.80;99.90;;;;;;5017270;28;20234;-77
2022/08/21 02:37:53;;;;;;;10.57;10.27;;;16.80;99.90;;;;;;5017577;28;20769;-77
2022/08/21 02:40:26;;;;;;;10.50;10.20;;;16.70;99.90;;;;;;5017497;28;20236;-77
2022/08/21 02:42:56;;;;;;;10.40;10.10;;;16.80;99.90;;;;;;5017457;28;20236;-77
2022/08/21 02:45:24;;;;;;;10.48;10.18;;;16.70;99.90;;;;;;5016910;28;20232;-77
2022/08/21 02:47:53;;;;;;;10.45;10.15;;;16.70;99.90;;;;;;5017561;28;20212;-77
2022/08/21 02:50:26;;;;;;;10.40;10.10;;;16.70;99.90;;;;;;5016987;28;20250;-76
2022/08/21 02:52:54;;;;;;;10.50;10.20;;;16.70;99.90;;;;;;5017915;28;20263;-77
2022/08/21 02:55:22;;;;;;;10.70;10.40;;;16.70;99.90;;;;;;5016869;28;20232;-77
2022/08/21 02:57:50;;;;;;;10.75;10.45;;;16.60;99.90;;;;;;5017511;28;20242;-77
2022/08/21 03:00:20;;;;;;;10.50;10.20;;;16.70;99.90;;;;;;5017704;28;20355;-77
2022/08/21 03:02:48;;;;;;;10.65;10.35;;;16.60;99.90;;;;;;5017373;28;20291;-77
2022/08/21 03:05:16;;;;;;;10.40;10.10;;;16.60;99.90;;;;;;5016752;28;20232;-77
2022/08/21 03:07:46;;;;;;;10.45;10.15;;;16.60;99.90;;;;;;5017179;28;20232;-77
2022/08/21 03:10:14;;;;;;;10.50;10.20;;;16.60;99.90;;;;;;5017549;28;20236;-76
2022/08/21 03:12:42;;;;;;;10.48;10.18;;;16.60;99.90;;;;;;5017546;28;20236;-77
2022/08/21 03:15:17;;;;;;;10.43;10.13;;;16.50;99.90;;;;;;5019022;28;20336;-77
2022/08/21 03:17:47;;;;;;;10.50;10.20;;;16.50;99.90;;;;;;5021045;28;20239;-76
2022/08/21 03:20:17;;;;;;;10.70;10.40;;;16.50;99.90;;;;;;5020464;28;20240;-77
2022/08/21 03:22:44;;;;;;;10.75;10.45;;;16.50;99.90;;;;;;5020688;28;20236;-77
2022/08/21 03:25:11;;;;;;;10.57;10.27;;;16.40;99.90;;;;;;5019848;28;20238;-76
2022/08/21 03:27:39;;;;;;;10.60;10.30;;;16.40;99.90;;;;;;5020798;28;20224;-77
2022/08/21 03:30:09;;;;;;;10.63;10.32;;;16.30;99.90;;;;;;5021335;28;20250;-77
2022/08/21 03:32:36;;;;;;;10.82;10.45;;;16.20;99.90;;;;;;5020664;28;20243;-77
2022/08/21 03:35:06;;;;;;;10.82;10.43;;;16.20;99.90;;;;;;5020184;28;20243;-77
2022/08/21 03:37:34;;;;;;;10.93;10.52;;;16.30;99.90;;;;;;5020523;28;20232;-77
2022/08/21 03:40:02;;;;;;;10.90;10.50;;;16.30;99.90;;;;;;5020735;28;20244;-77
2022/08/21 03:42:29;;;;;;;11.00;10.60;;;16.40;99.90;;;;;;5020569;28;20267;-77
2022/08/21 03:44:57;;;;;;;10.90;10.50;;;16.40;99.90;;;;;;5020127;28;20318;-77
2022/08/21 03:47:24;;;;;;;10.85;10.45;;;16.40;99.90;;;;;;5019985;28;20300;-77
2022/08/21 03:49:52;;;;;;;10.90;10.50;;;16.40;99.90;;;;;;5020145;28;20240;-77
2022/08/21 03:52:21;;;;;;;10.93;10.52;;;16.40;99.90;;;;;;5020757;28;20259;-77
2022/08/21 03:54:49;;;;;;;10.90;10.50;;;16.40;99.90;;;;;;5019928;28;20228;-77
2022/08/21 03:57:18;;;;;;;11.27;10.88;;;16.40;99.90;;;;;;5019708;28;20283;-77
2022/08/21 03:59:46;;;;;;;11.00;10.60;;;16.40;99.90;;;;;;5020051;28;20239;-77
2022/08/21 04:02:18;;;;;;;11.00;10.60;;;16.30;99.90;;;;;;5020521;28;20316;-77
2022/08/21 04:04:45;;;;;;;11.15;10.75;;;16.30;99.90;;;;;;5019626;28;20263;-77
2022/08/21 04:07:13;;;;;;;11.27;10.88;;;16.40;99.90;;;;;;5019589;28;20232;-77
2022/08/21 04:09:41;;;;;;;11.23;10.82;;;16.40;99.90;;;;;;5019757;28;20263;-77
2022/08/21 04:12:09;;;;;;;11.00;10.60;;;16.40;99.90;;;;;;5020075;28;20228;-77
2022/08/21 04:14:37;;;;;;;11.10;10.70;;;16.40;99.90;;;;;;5019071;28;20221;-77
2022/08/21 04:17:05;;;;;;;11.00;10.60;;;16.40;99.90;;;;;;5019808;28;20266;-77
2022/08/21 04:19:32;;;;;;;11.27;10.88;;;16.40;99.90;;;;;;5019739;28;20299;-76
2022/08/21 04:22:00;;;;;;;11.30;10.90;;;16.40;99.90;;;;;;5019626;28;20239;-77
2022/08/21 04:24:27;;;;;;;11.20;10.80;;;16.40;99.90;;;;;;5019132;28;20288;-77
2022/08/21 04:26:56;;;;;;;11.20;10.80;;;16.40;99.90;;;;;;5018968;28;20232;-76
2022/08/21 04:29:23;;;;;;;11.30;10.90;;;16.40;99.90;;;;;;5019473;28;20240;-77
2022/08/21 04:31:52;;;;;;;11.35;10.95;;;16.40;99.90;;;;;;5019792;28;20243;-77
2022/08/21 04:34:19;;;;;;;11.10;10.70;;;16.40;99.90;;;;;;5019236;28;20235;-77
2022/08/21 04:36:47;;;;;;;11.10;10.70;;;16.40;99.90;;;;;;5019537;28;20244;-77
2022/08/21 04:39:14;;;;;;;10.98;10.57;;;16.40;99.90;;;;;;5019399;28;20248;-77
2022/08/21 04:41:42;;;;;;;10.93;10.52;;;16.40;99.90;;;;;;5020740;28;20240;-77
2022/08/21 04:44:10;;;;;;;10.88;10.48;;;16.50;99.90;;;;;;5023433;28;20239;-77
2022/08/21 04:46:38;;;;;;;10.98;10.57;;;16.50;99.90;;;;;;5022761;28;20227;-77
2022/08/21 04:49:05;;;;;;;10.82;10.50;;;16.50;99.90;;;;;;5019896;28;20246;-77
2022/08/21 04:51:40;;;;;;;11.07;10.68;;;16.50;99.90;;;;;;5046040;22;21072;-83
2022/08/21 04:54:14;;;;;;;10.68;10.38;;;16.50;99.90;;;;;;5023925;28;20228;-82
2022/08/21 04:56:48;;;;;;;10.70;10.40;;;16.50;99.90;;;;;;5023445;28;20236;-82
2022/08/21 04:59:27;;;;;;;10.57;10.27;;;16.50;99.90;;;;;;5023948;28;20263;-82
2022/08/21 05:01:57;;;;;;;10.60;10.30;;;16.40;99.90;;;;;;5023949;28;20259;-82
2022/08/21 05:04:28;;;;;;;10.77;10.45;;;16.50;99.90;;;;;;5023922;28;20243;-82
2022/08/21 05:06:58;;;;;;;10.70;10.40;;;16.40;99.90;;;;;;5024223;28;20227;-83
2022/08/21 05:09:26;;;;;;;10.50;10.20;;;16.30;99.90;;;;;;5024103;28;20233;-83
2022/08/21 05:11:54;;;;;;;10.80;10.50;;;16.30;99.90;;;;;;5024453;28;20271;-82
2022/08/21 05:14:32;;;;;;;11.00;10.60;;;16.20;99.90;;;;;;5023515;28;20290;-80
2022/08/21 05:17:01;;;;;;;10.98;10.57;;;16.20;99.90;;;;;;5023976;28;20239;-82
2022/08/21 05:19:31;;;;;;;10.98;10.57;;;16.20;99.90;;;;;;5023964;28;21008;-82
2022/08/21 05:22:00;;;;;;;11.15;10.75;;;16.20;99.90;;;;;;5024610;28;20237;-82
2022/08/21 05:24:30;;;;;;;10.80;10.50;;;16.30;99.90;;;;;;5023300;28;20278;-82
2022/08/21 05:26:59;;;;;;;10.70;10.40;;;16.30;99.90;;;;;;5023800;28;20231;-83
2022/08/21 05:32:16;;;;;;;10.73;10.43;;;16.30;99.90;;;;;;5023508;28;20232;-83
2022/08/21 05:34:45;;;;;;;10.50;10.20;;;16.30;99.90;;;;;;5022844;28;20244;-83
2022/08/21 05:37:14;;;;;;;10.70;10.40;;;16.30;99.90;;;;;;5022517;28;20232;-82
2022/08/21 05:39:44;;;;;;;10.60;10.30;;;16.30;99.90;;;;;;5024097;28;20240;-83
2022/08/21 05:42:13;;;;;;;10.60;10.30;;;16.30;99.90;;;;;;5024641;28;20263;-83
2022/08/21 05:44:51;;;;;;;10.63;10.32;;;16.40;99.90;;;;;;5025633;28;20231;-82
2022/08/21 05:47:21;;;;;;;11.10;10.70;;;16.40;99.90;;;;;;5025245;28;20231;-83
2022/08/21 05:49:50;;;;;;;10.35;10.05;;;16.40;99.90;;;;;;5025446;28;20294;-83
2022/08/21 05:52:21;;;;;;;10.30;10.00;;;16.40;99.90;;;;;;5026687;28;20328;-83
2022/08/21 05:54:50;;;;;;;10.63;10.32;;;16.40;99.90;;;;;;5028454;28;20239;-83
2022/08/21 05:57:19;;;;;;;10.70;10.40;;;16.40;99.90;;;;;;5024690;28;20220;-82
2022/08/21 05:59:57;;;;;;;10.93;10.60;;;16.50;99.90;;;;;;5023945;28;20236;-83
2022/08/21 06:02:27;;;;;;;10.45;10.15;;;16.50;99.90;;;;;;5023015;28;20232;-83
2022/08/21 06:04:57;;;;;;;10.70;10.40;;;16.40;99.90;;;;;;5023540;28;20274;-82
2022/08/21 06:07:27;;;;;;;10.55;10.25;;;16.50;99.90;;;;;;5023024;28;20224;-82
2022/08/21 06:09:57;;;;;;;10.40;10.10;;;16.50;99.90;;;;;;5023087;28;20315;-82
2022/08/21 06:12:26;;;;;;;10.55;10.25;;;16.50;99.90;;;;;;5023610;28;20288;-82
2022/08/21 06:17:42;;;;;;;10.20;9.90;;;16.50;99.90;;;;;;5023462;28;20228;-83
2022/08/21 06:20:13;;;;;;;10.23;9.93;;;16.50;99.90;;;;;;5022962;28;20332;-82
2022/08/21 06:22:42;;;;;;;10.23;9.93;;;16.60;99.90;;;;;;5024214;28;20331;-83
2022/08/21 06:25:10;;;;;;;10.23;9.93;;;16.60;99.90;;;;;;5032887;28;20230;-83
2022/08/21 06:27:40;;;;;;;9.98;9.68;;;16.70;99.90;;;;;;5033365;28;20232;-82
2022/08/21 06:30:13;;;;;;;10.10;9.80;;;16.80;99.90;;;;;;5036436;28;20250;-80
2022/08/21 06:32:41;;;;;;;10.05;9.75;;;16.80;99.90;;;;;;5037650;28;20235;-82
2022/08/21 06:35:09;;;;;;;10.00;9.70;;;16.90;99.90;;;;;;5036946;28;20254;-81
2022/08/21 06:37:38;;;;;;;10.05;9.75;;;17.00;99.90;;;;;;5030314;28;20292;-83
2022/08/21 06:40:07;;;;;;;10.23;9.93;;;17.00;99.90;;;;;;5027029;28;20250;-81
2022/08/21 06:42:37;;;;;;;10.07;9.77;;;16.90;99.90;;;;;;5026283;28;20239;-83
2022/08/21 06:45:06;;;;;;;10.00;9.70;;;17.00;99.90;;;;;;5024621;28;20323;-83
2022/08/21 06:47:39;;;;;;;10.07;9.77;;;17.10;99.90;;;;;;5025558;28;20230;-83
2022/08/21 06:50:14;;;;;;;10.13;9.82;;;17.20;99.90;;;;;;5029869;28;20236;-83
2022/08/21 06:52:43;;;;;;;10.07;9.77;;;17.20;99.90;;;;;;5031773;28;20235;-83
2022/08/21 06:55:13;;;;;;;10.07;9.77;;;17.30;99.90;;;;;;5029684;28;20220;-83
2022/08/21 06:57:43;;;;;;;10.00;9.70;;;17.30;99.90;;;;;;5030463;28;20220;-83
2022/08/21 07:00:12;;;;;;;10.15;9.85;;;17.40;99.90;;;;;;5029927;28;20279;-82
2022/08/21 07:02:50;;;;;;;9.95;9.65;;;17.50;99.90;;;;;;5029149;28;20295;-81
2022/08/21 07:05:20;;;;;;;9.77;9.48;;;17.60;99.90;;;;;;5027412;28;21166;-83
2022/08/21 07:07:49;;;;;;;9.73;9.43;;;17.70;99.90;;;;;;5028427;28;20251;-82
2022/08/21 07:10:18;;;;;;;9.75;9.45;;;17.60;99.90;;;;;;5027246;28;20264;-82
2022/08/21 07:12:47;;;;;;;9.73;9.43;;;17.60;99.90;;;;;;5027529;28;20228;-83
2022/08/21 07:15:17;;;;;;;9.65;9.35;;;17.60;99.90;;;;;;5026629;28;20318;-82
2022/08/21 07:17:49;;;;;;;9.90;9.60;;;17.60;99.90;;;;;;5026922;28;20344;-83
2022/08/21 07:20:17;;;;;;;9.80;9.50;;;17.70;99.90;;;;;;5026168;28;20275;-82
2022/08/21 07:22:46;;;;;;;9.80;9.50;;;17.70;99.90;;;;;;5027272;28;20236;-83
2022/08/21 07:25:15;;;;;;;9.85;9.55;;;17.50;99.90;;;;;;5027002;28;20296;-82
2022/08/21 07:27:45;;;;;;;9.88;9.57;;;17.60;99.90;;;;;;5026757;28;20248;-82
2022/08/21 07:30:14;;;;;;;9.90;9.60;;;17.70;99.90;;;;;;5027313;28;20228;-83
2022/08/21 07:32:43;;;;;;;9.98;9.68;;;17.60;99.90;;;;;;5027168;28;20264;-83
2022/08/21 07:35:23;;;;;;;9.77;9.48;;;17.60;99.90;;;;;;5026525;28;20243;-82
2022/08/21 07:37:51;;;;;;;9.90;9.60;;;17.70;99.90;;;;;;5026872;28;20232;-83
2022/08/21 07:40:21;;;;;;;9.80;9.50;;;17.80;99.90;;;;;;5026898;28;20271;-83
2022/08/21 07:42:51;;;;;;;9.60;9.30;;;17.80;99.90;;;;;;5027120;28;20258;-80
2022/08/21 07:45:21;;;;;;;9.70;9.40;;;18.00;99.90;;;;;;5026434;28;20228;-83
2022/08/21 07:47:49;;;;;;;9.55;9.25;;;18.10;99.90;;;;;;5027809;28;20232;-83
2022/08/21 07:50:27;;;;;;;9.68;9.38;;;18.10;99.90;;;;;;5028122;28;20338;-83
2022/08/21 07:52:56;;;;;;;9.73;9.43;;;18.10;99.90;;;;;;5027990;28;20243;-82
2022/08/21 07:55:26;;;;;;;9.40;9.10;;;18.10;99.90;;;;;;5027209;28;20240;-83
2022/08/21 07:57:56;;;;;;;9.40;9.10;;;18.10;99.90;;;;;;5026929;28;20290;-83
2022/08/21 08:00:27;;;;;;;9.25;8.95;;;18.20;99.90;;;;;;5026155;28;20268;-82
2022/08/21 08:02:56;;;;;;;9.35;9.05;;;18.30;99.90;;;;;;5028358;28;20240;-83
2022/08/21 08:05:32;;;;;;;9.30;9.00;;;18.40;99.90;;;;;;5027719;28;20255;-83
2022/08/21 08:08:05;;;;;;;8.70;8.50;;;18.50;99.90;;;;;;5030826;28;20231;-83
2022/08/21 08:10:33;;;;;;;9.07;8.77;;;18.50;99.90;;;;;;5035530;28;20288;-81
2022/08/21 08:13:03;;;;;;;8.90;8.60;;;18.60;99.90;;;;;;5034549;28;20236;-83
2022/08/21 08:15:33;;;;;;;8.73;8.52;;;18.70;99.90;;;;;;5031557;28;20221;-82
2022/08/21 08:18:02;;;;;;;8.60;8.40;;;18.80;99.90;;;;;;5029810;28;20282;-83
2022/08/21 08:20:40;;;;;;;8.55;8.35;;;18.80;99.90;;;;;;5026079;28;20251;-82
2022/08/21 08:23:09;;;;;;;8.65;8.45;;;18.90;99.90;;;;;;5026529;28;20236;-83
2022/08/21 08:25:38;;;;;;;8.70;8.50;;;19.00;99.90;;;;;;5023903;28;20315;-83
2022/08/21 08:28:08;;;;;;;8.65;8.45;;;19.10;99.90;;;;;;5024986;28;20228;-83
2022/08/21 08:30:37;;;;;;;8.60;8.40;;;19.20;99.90;;;;;;5025467;28;20699;-83
2022/08/21 08:33:06;;;;;;;8.52;8.32;;;19.30;99.90;;;;;;5027075;28;20228;-84
2022/08/21 08:35:45;;;;;;;8.60;8.40;;;19.30;99.90;;;;;;5027534;28;20311;-83
2022/08/21 08:38:18;;;;;;;8.60;8.40;;;19.40;99.90;;;;;;5028117;28;20236;-83
2022/08/21 08:40:53;;;;;;;8.60;8.40;;;19.40;99.90;;;;;;5029654;28;20271;-84
2022/08/21 08:43:22;;;;;;;8.60;8.40;;;19.40;99.90;;;;;;5029215;28;20240;-84
2022/08/21 08:45:52;;;;;;;9.00;8.70;;;19.50;99.90;;;;;;5032053;28;20239;-82
2022/08/21 08:48:47;;;;;;;8.65;8.45;;;19.50;99.90;;;;;;5034598;28;20255;-81
2022/08/21 08:51:26;;;;;;;8.80;8.60;;;19.60;99.90;;;;;;5028402;28;20312;-83
2022/08/21 08:54:04;;;;;;;8.70;8.50;;;19.60;99.90;;;;;;5028578;28;20297;-83
2022/08/21 08:56:34;;;;;;;8.70;8.50;;;19.80;99.90;;;;;;5026502;28;20240;-82
2022/08/21 08:59:11;;;;;;;9.02;8.73;;;19.90;99.90;;;;;;5026403;28;20224;-84
2022/08/21 09:01:41;;;;;;;8.75;8.55;;;20.10;99.90;;;;;;5026446;28;20243;-83
2022/08/21 09:04:12;;;;;;;8.85;8.65;;;20.20;99.90;;;;;;5025870;28;20232;-83
2022/08/21 09:06:58;;;;;;;8.77;8.57;;;20.30;99.90;;;;;;5025057;28;21010;-83
2022/08/21 09:09:46;;;;;;;8.73;8.52;;;20.50;99.90;;;;;;5025504;28;20216;-83
2022/08/21 09:12:32;;;;;;;8.60;8.40;;;20.60;99.90;;;;;;5025385;28;20236;-83
2022/08/21 09:15:10;;;;;;;8.40;8.20;;;20.80;99.90;;;;;;5026489;28;20261;-82
2022/08/21 09:17:57;;;;;;;8.50;8.30;;;21.00;99.90;;;;;;5026181;28;20228;-83
2022/08/21 09:20:36;;;;;;;8.32;8.13;;;21.10;99.90;;;;;;5025647;28;20232;-83
2022/08/21 09:23:22;;;;;;;8.40;8.20;;;21.20;99.90;;;;;;5026524;28;20232;-83
2022/08/21 09:26:01;;;;;;;8.40;8.20;;;21.40;99.90;;;;;;5025353;28;20242;-83
2022/08/21 09:28:33;;;;;;;8.50;8.30;;;21.60;99.90;;;;;;5025228;28;20302;-83
2022/08/21 09:31:02;;;;;;;8.68;8.48;;;21.70;99.90;;;;;;5024609;28;20224;-83
2022/08/21 09:33:30;;;;;;;8.52;8.32;;;21.80;99.90;;;;;;5024620;28;20236;-83
2022/08/21 09:35:58;;;;;;;8.35;8.15;;;21.80;99.90;;;;;;5024456;28;20264;-84
2022/08/21 09:38:37;;;;;;;8.40;8.20;;;21.80;99.90;;;;;;5024501;28;20242;-83
2022/08/21 09:41:09;;;;;;;8.48;8.27;;;21.80;99.90;;;;;;5024018;28;20292;-84
2022/08/21 09:43:44;;;;;;;8.80;8.60;;;21.80;99.90;;;;;;5023949;28;20233;-83
2022/08/21 09:46:22;;;;;;;8.80;8.60;;;21.80;99.90;;;;;;5024452;28;20231;-84
2022/08/21 09:48:53;;;;;;;8.60;8.40;;;21.70;99.90;;;;;;5025580;28;20315;-82
2022/08/21 09:51:24;;;;;;;8.95;8.75;;;21.80;99.90;;;;;;5024394;28;20220;-82
2022/08/21 09:53:59;;;;;;;8.93;8.73;;;21.60;99.90;;;;;;5025268;28;20236;-82
2022/08/21 09:59:25;;;;;;;9.30;9.00;;;22.20;99.90;;;;;;5027729;28;20205;-82
2022/08/21 10:01:54;;;;;;;9.20;8.90;;;22.70;99.90;;;;;;5026857;28;20231;-84
2022/08/21 10:04:33;;;;;;;9.10;8.80;;;23.00;99.90;;;;;;5026640;28;20300;-83
2022/08/21 10:07:12;;;;;;;9.00;8.70;;;23.20;99.90;;;;;;5026392;28;20244;-84
2022/08/21 10:09:44;;;;;;;9.05;8.77;;;23.60;99.90;;;;;;5024343;28;20266;-79
2022/08/21 10:12:20;;;;;;;9.10;8.80;;;23.80;99.90;;;;;;5022156;28;20232;-84
2022/08/21 10:14:59;;;;;;;9.18;8.88;;;24.00;99.90;;;;;;5020363;28;20297;-78
2022/08/21 10:17:38;;;;;;;9.35;9.05;;;24.20;99.90;;;;;;5020738;28;20232;-77
2022/08/21 10:20:16;;;;;;;9.50;9.20;;;24.40;99.90;;;;;;5024143;28;20231;-79
2022/08/21 10:22:56;;;;;;;9.60;9.30;;;24.60;99.90;;;;;;5021547;28;20247;-78
2022/08/21 10:30:06;;;;;;;9.32;9.02;;;25.30;99.90;;;;;;5003475;28;20937;-81
2022/08/21 10:36:55;;;;;;;9.70;9.40;;;26.00;99.90;;;;;;5026484;28;20275;-81
2022/08/21 10:53:54;;;;;;;10.35;10.05;;;27.10;99.90;;;;;;5042678;22;20309;-80
2022/08/21 10:56:25;;;;;;;10.40;10.10;;;27.30;99.90;;;;;;5021626;28;20231;-80
2022/08/21 10:59:13;;;;;;;10.40;10.10;;;27.40;99.90;;;;;;5030939;28;20295;-79
2022/08/21 11:02:02;;;;;;;10.43;10.13;;;27.50;99.90;;;;;;5025583;28;20327;-79
2022/08/21 11:04:38;;;;;;;10.60;10.30;;;27.60;99.90;;;;;;5025205;28;20220;-79
2022/08/21 11:07:17;;;;;;;10.30;10.00;;;27.80;99.90;;;;;;5026855;28;20250;-79
2022/08/21 11:09:49;;;;;;;10.50;10.20;;;27.90;99.90;;;;;;5032335;28;20287;-79
2022/08/21 11:12:26;;;;;;;10.70;10.40;;;27.90;99.90;;;;;;5031465;28;20232;-80
2022/08/21 11:15:02;;;;;;;10.52;10.23;;;28.10;99.90;;;;;;5035236;28;20292;-80
2022/08/21 11:17:41;;;;;;;10.70;10.40;;;28.20;99.90;;;;;;5035882;28;20216;-79
2022/08/21 11:20:19;;;;;;;10.60;10.30;;;28.50;99.90;;;;;;5035981;28;20239;-80
2022/08/21 11:22:54;;;;;;;10.50;10.20;;;28.80;99.90;;;;;;5035489;28;20299;-80
2022/08/21 11:25:34;;;;;;;10.43;10.13;;;29.00;99.90;;;;;;5035336;28;20251;-81
2022/08/21 11:28:14;;;;;;;10.63;10.32;;;29.20;99.90;;;;;;5031982;28;20559;-79
2022/08/21 11:31:00;;;;;;;10.90;10.60;;;29.10;99.90;;;;;;5034649;28;20255;-80
2022/08/21 11:33:49;;;;;;;10.73;10.43;;;29.00;99.90;;;;;;5036144;28;20287;-80
2022/08/21 11:36:28;;;;;;;10.70;10.40;;;28.80;99.90;;;;;;5038316;28;20239;-81
2022/08/21 11:39:04;;;;;;;10.57;10.27;;;29.10;99.90;;;;;;5026564;28;20236;-81
2022/08/21 11:41:42;;;;;;;10.50;10.20;;;29.30;99.90;;;;;;5025033;28;20254;-81
2022/08/21 11:44:21;;;;;;;10.32;10.02;;;29.30;99.90;;;;;;5024664;28;20228;-80
2022/08/21 11:46:58;;;;;;;10.18;9.88;;;29.60;99.90;;;;;;5023558;28;20311;-80
2022/08/21 11:49:44;;;;;;;10.10;9.80;;;29.70;99.90;;;;;;5023118;28;20239;-80
2022/08/21 11:52:25;;;;;;;10.48;10.18;;;30.20;99.90;;;;;;5023046;28;20244;-80
2022/08/21 11:55:03;;;;;;;10.48;10.18;;;30.50;99.90;;;;;;5024512;28;20323;-81
2022/08/21 11:57:42;;;;;;;10.32;10.02;;;30.70;99.90;;;;;;5023456;28;20700;-81
2022/08/21 12:00:20;;;;;;;10.70;10.40;;;30.80;99.90;;;;;;5026242;28;20251;-81
2022/08/21 12:02:59;;;;;;;10.63;10.32;;;30.50;99.90;;;;;;5024281;28;20263;-81
2022/08/21 12:05:36;;;;;;;10.65;10.35;;;30.40;99.90;;;;;;5025030;28;20220;-81
2022/08/21 12:08:14;;;;;;;10.88;10.57;;;30.50;99.90;;;;;;5025309;28;20299;-81
2022/08/21 12:10:47;;;;;;;10.52;10.23;;;30.80;99.90;;;;;;5024182;28;20238;-81
2022/08/21 12:13:31;;;;;;;10.45;10.15;;;30.80;99.90;;;;;;5026667;28;20342;-80
2022/08/21 12:16:09;;;;;;;10.75;10.45;;;31.10;99.90;;;;;;5038522;28;20270;-80
2022/08/21 12:18:37;;;;;;;10.77;10.48;;;31.40;99.90;;;;;;5036709;28;20232;-79
2022/08/21 12:21:21;;;;;;;10.80;10.50;;;31.60;99.90;;;;;;5027890;28;20308;-79
2022/08/21 12:24:04;;;;;;;10.73;10.43;;;31.30;99.90;;;;;;5025801;28;20243;-79
2022/08/21 12:26:36;;;;;;;10.35;10.05;;;31.10;99.90;;;;;;5025363;28;20319;-80
2022/08/21 12:29:15;;;;;;;10.70;10.40;;;31.40;99.90;;;;;;5024956;28;20325;-80
2022/08/21 12:31:59;;;;;;;10.73;10.43;;;31.60;99.90;;;;;;5026151;28;20247;-81
2022/08/21 12:34:37;;;;;;;11.20;10.90;;;31.90;99.90;;;;;;5024893;28;20271;-80
2022/08/21 12:37:12;;;;;;;10.85;10.55;;;32.10;99.90;;;;;;5024721;28;20251;-80
2022/08/21 12:39:45;;;;;;;10.93;10.63;;;32.30;99.90;;;;;;5025019;28;20263;-80
2022/08/21 12:42:19;;;;;;;10.80;10.50;;;32.20;99.90;;;;;;5024921;28;20316;-80
2022/08/21 12:44:54;;;;;;;10.90;10.60;;;31.70;99.90;;;;;;5024133;28;20287;-81
2022/08/21 12:47:31;;;;;;;10.65;10.35;;;31.90;99.90;;;;;;5023837;28;20234;-81
2022/08/21 12:50:11;;;;;;;10.75;10.45;;;31.90;99.90;;;;;;5023836;28;20263;-80
2022/08/21 12:52:47;;;;;;;10.50;10.20;;;31.60;99.90;;;;;;5024191;28;20258;-80
2022/08/21 12:55:17;;;;;;;10.60;10.30;;;31.30;99.90;;;;;;5024459;28;20351;-80
2022/08/21 12:57:46;;;;;;;10.60;10.30;;;31.10;99.90;;;;;;5024907;28;20286;-79
2022/08/21 13:00:24;;;;;;;10.85;10.55;;;30.90;99.90;;;;;;5026184;28;20302;-81
2022/08/21 13:02:56;;;;;;;11.10;10.80;;;30.60;99.90;;;;;;5027587;28;20249;-80
2022/08/21 13:05:32;;;;;;;11.13;10.82;;;30.10;99.90;;;;;;5024269;28;20355;-81
2022/08/21 13:08:02;;;;;;;11.05;10.75;;;30.10;99.90;;;;;;5022888;28;20283;-80
2022/08/21 13:10:33;;;;;;;10.90;10.60;;;30.00;99.90;;;;;;5022877;28;20316;-80
2022/08/21 13:13:04;;;;;;;11.00;10.70;;;30.10;99.90;;;;;;5021495;28;20339;-81
2022/08/21 13:15:36;;;;;;;11.20;10.90;;;30.30;99.90;;;;;;5022976;28;20220;-80
2022/08/21 13:18:06;;;;;;;10.90;10.60;;;29.90;99.90;;;;;;5021996;28;20305;-81
2022/08/21 13:20:37;;;;;;;10.50;10.20;;;29.70;99.90;;;;;;5023035;28;20236;-80
2022/08/21 13:23:27;;;;;;;10.85;10.55;;;29.30;99.90;;;;;;5023264;28;20240;-80
2022/08/21 13:25:55;;;;;;;10.80;10.50;;;29.10;99.90;;;;;;5023106;28;20244;-80
2022/08/21 13:28:22;;;;;;;10.60;10.30;;;29.20;99.90;;;;;;5024334;28;20222;-79